createdAt,value
2022-10-23T00:02:14.100Z,63.37
2022-10-23T00:04:40.498Z,63.02
2022-10-23T00:07:06.873Z,63.04
2022-10-23T00:09:33.256Z,62.85
2022-10-23T00:11:59.639Z,63.11
2022-10-23T00:14:26.009Z,63.71
2022-10-23T00:16:52.377Z,63.84
2022-10-23T00:19:18.744Z,63.72
2022-10-23T00:21:45.110Z,63.81
2022-10-23T00:24:11.478Z,63.74
2022-10-23T00:26:37.849Z,63.66
2022-10-23T00:29:04.223Z,63.48
2022-10-23T00:31:30.588Z,63.46
2022-10-23T00:33:56.959Z,63.39
2022-10-23T00:36:23.322Z,63.06
2022-10-23T00:38:49.688Z,63.11
2022-10-23T00:41:16.058Z,63.15
2022-10-23T00:43:42.422Z,63.38
2022-10-23T00:46:08.800Z,63.14
2022-10-23T00:48:35.178Z,63.08
2022-10-23T00:51:01.567Z,63.22
2022-10-23T00:53:27.940Z,63.41
2022-10-23T00:55:54.295Z,63.16
2022-10-23T00:58:20.663Z,63.38
2022-10-23T01:00:47.038Z,63.32
2022-10-23T01:03:13.404Z,63.18
2022-10-23T01:05:39.821Z,62.88
2022-10-23T01:08:06.206Z,63.36
2022-10-23T01:10:32.572Z,63.41
2022-10-23T01:12:58.942Z,63.43
2022-10-23T01:15:25.305Z,63.33
2022-10-23T01:17:51.897Z,63.30
2022-10-23T01:20:18.318Z,63.52
2022-10-23T01:22:44.800Z,63.42
2022-10-23T01:25:11.240Z,63.35
2022-10-23T01:27:37.596Z,63.19
2022-10-23T01:30:03.978Z,63.34
2022-10-23T01:32:30.337Z,63.40
2022-10-23T01:34:56.702Z,63.37
2022-10-23T01:37:23.079Z,63.23
2022-10-23T01:39:49.458Z,63.31
2022-10-23T01:42:15.853Z,63.42
2022-10-23T01:44:42.210Z,63.36
2022-10-23T01:47:08.578Z,63.34
2022-10-23T01:49:34.975Z,63.47
2022-10-23T01:52:01.364Z,63.13
2022-10-23T01:54:27.739Z,63.44
2022-10-23T01:56:54.099Z,63.61
2022-10-23T01:59:20.569Z,63.59
2022-10-23T02:01:47.031Z,63.49
2022-10-23T02:04:13.483Z,63.34
2022-10-23T02:06:39.865Z,63.60
2022-10-23T02:09:06.229Z,63.45
2022-10-23T02:11:32.604Z,63.19
2022-10-23T02:13:58.964Z,63.18
2022-10-23T02:16:25.341Z,63.26
2022-10-23T02:18:51.725Z,63.39
2022-10-23T02:21:18.091Z,63.04
2022-10-23T02:23:44.466Z,63.22
2022-10-23T02:26:10.838Z,63.24
2022-10-23T02:28:37.222Z,63.34
2022-10-23T02:31:03.582Z,63.32
2022-10-23T02:33:29.953Z,63.44
2022-10-23T02:35:56.310Z,63.27
2022-10-23T02:38:22.682Z,63.50
2022-10-23T02:40:49.063Z,63.21
2022-10-23T02:43:15.424Z,63.47
2022-10-23T02:48:28.080Z,63.62
2022-10-23T02:50:54.462Z,63.42
2022-10-23T02:53:20.826Z,63.39
2022-10-23T02:55:47.197Z,63.20
2022-10-23T02:58:13.570Z,63.33
2022-10-23T03:00:39.942Z,63.34
2022-10-23T03:03:06.328Z,63.31
2022-10-23T03:05:32.696Z,63.53
2022-10-23T03:07:59.052Z,63.49
2022-10-23T03:10:25.430Z,63.33
2022-10-23T03:12:51.792Z,63.59
2022-10-23T03:15:18.162Z,63.35
2022-10-23T03:17:44.533Z,63.29
2022-10-23T03:20:10.915Z,63.52
2022-10-23T03:22:37.272Z,63.35
2022-10-23T03:25:03.630Z,63.12
2022-10-23T03:27:30.018Z,63.44
2022-10-23T03:29:56.395Z,63.46
2022-10-23T03:32:22.766Z,63.59
2022-10-23T03:34:49.142Z,63.54
2022-10-23T03:37:15.509Z,63.58
2022-10-23T03:39:42.271Z,63.34
2022-10-23T03:42:08.626Z,63.42
2022-10-23T03:44:34.995Z,63.65
2022-10-23T03:47:01.376Z,63.59
2022-10-23T03:49:27.738Z,63.43
2022-10-23T03:51:54.126Z,63.51
2022-10-23T03:54:20.498Z,63.47
2022-10-23T03:56:46.870Z,63.45
2022-10-23T03:59:13.228Z,63.61
2022-10-23T04:01:39.676Z,63.66
2022-10-23T04:04:06.112Z,63.47
2022-10-23T04:06:32.480Z,63.57
2022-10-23T04:08:59.004Z,63.25
2022-10-23T04:11:25.416Z,63.50
2022-10-23T04:13:51.772Z,63.57
2022-10-23T04:16:18.142Z,63.70
2022-10-23T04:18:44.519Z,63.47
2022-10-23T04:21:10.889Z,63.46
2022-10-23T04:23:37.260Z,63.47
2022-10-23T04:26:03.622Z,63.59
2022-10-23T04:28:29.997Z,63.17
2022-10-23T04:30:56.357Z,63.39
2022-10-23T04:33:22.739Z,63.32
2022-10-23T04:35:49.104Z,63.43
2022-10-23T04:38:15.477Z,63.54
2022-10-23T04:40:41.854Z,63.57
2022-10-23T04:43:08.208Z,63.53
2022-10-23T04:45:34.590Z,63.64
2022-10-23T04:48:00.961Z,63.63
2022-10-23T04:50:27.328Z,63.74
2022-10-23T04:52:53.693Z,63.59
2022-10-23T04:55:20.066Z,63.73
2022-10-23T04:57:46.449Z,63.72
2022-10-23T05:00:12.836Z,63.79
2022-10-23T05:02:39.223Z,63.87
2022-10-23T05:05:05.601Z,63.83
2022-10-23T05:07:31.956Z,63.59
2022-10-23T05:09:58.317Z,63.50
2022-10-23T05:12:24.699Z,63.61
2022-10-23T05:14:51.069Z,63.51
2022-10-23T05:17:17.439Z,63.60
2022-10-23T05:19:43.824Z,63.61
2022-10-23T05:22:10.187Z,63.75
2022-10-23T05:24:36.545Z,63.60
2022-10-23T05:27:02.913Z,63.58
2022-10-23T05:29:29.279Z,63.93
2022-10-23T05:31:55.651Z,63.58
2022-10-23T05:34:22.009Z,63.61
2022-10-23T05:36:48.367Z,63.64
2022-10-23T05:39:14.746Z,63.58
2022-10-23T05:41:41.210Z,63.66
2022-10-23T05:44:07.571Z,63.51
2022-10-23T05:46:33.946Z,63.62
2022-10-23T05:51:46.592Z,63.83
2022-10-23T05:54:12.953Z,63.89
2022-10-23T05:56:39.318Z,64.01
2022-10-23T05:59:05.684Z,63.81
2022-10-23T06:01:32.126Z,63.15
2022-10-23T06:03:58.570Z,62.70
2022-10-23T06:06:24.938Z,62.87
2022-10-23T06:08:51.326Z,63.26
2022-10-23T06:11:17.698Z,63.26
2022-10-23T06:13:44.119Z,63.36
2022-10-23T06:16:10.519Z,63.43
2022-10-23T06:18:36.892Z,63.59
2022-10-23T06:21:03.251Z,63.52
2022-10-23T06:23:29.608Z,63.74
2022-10-23T06:25:55.995Z,63.86
2022-10-23T06:28:22.358Z,63.55
2022-10-23T06:30:48.733Z,63.75
2022-10-23T06:33:15.100Z,64.03
2022-10-23T06:35:41.463Z,63.80
2022-10-23T06:38:07.837Z,63.75
2022-10-23T06:40:34.196Z,63.89
2022-10-23T06:43:00.557Z,63.99
2022-10-23T06:45:26.919Z,63.67
2022-10-23T06:47:53.307Z,63.64
2022-10-23T06:50:19.669Z,63.72
2022-10-23T06:52:47.385Z,63.64
2022-10-23T06:55:14.292Z,63.46
2022-10-23T06:57:40.949Z,63.37
2022-10-23T07:00:07.540Z,63.46
2022-10-23T07:02:33.892Z,63.18
2022-10-23T07:05:00.265Z,63.36
2022-10-23T07:07:26.637Z,63.34
2022-10-23T07:09:52.998Z,63.38
2022-10-23T07:12:19.367Z,63.17
2022-10-23T07:14:45.747Z,63.22
2022-10-23T07:17:12.118Z,63.35
2022-10-23T07:19:38.494Z,63.46
2022-10-23T07:22:04.879Z,63.44
2022-10-23T07:24:31.296Z,63.35
2022-10-23T07:26:57.662Z,63.56
2022-10-23T07:29:24.030Z,63.45
2022-10-23T07:31:50.415Z,63.36
2022-10-23T07:34:16.794Z,63.43
2022-10-23T07:36:43.164Z,63.48
2022-10-23T07:39:09.540Z,63.25
2022-10-23T07:41:35.910Z,63.44
2022-10-23T07:44:02.287Z,63.29
2022-10-23T07:46:28.655Z,63.25
2022-10-23T07:48:55.025Z,63.32
2022-10-23T07:51:21.389Z,63.26
2022-10-23T07:53:47.758Z,63.12
2022-10-23T07:56:14.108Z,63.28
2022-10-23T07:58:40.488Z,63.17
2022-10-23T08:01:06.923Z,62.97
2022-10-23T08:03:33.308Z,63.18
2022-10-23T08:05:59.661Z,63.19
2022-10-23T08:08:26.021Z,63.11
2022-10-23T08:10:52.384Z,63.11
2022-10-23T08:13:18.751Z,63.16
2022-10-23T08:15:45.123Z,63.08
2022-10-23T08:18:11.490Z,63.11
2022-10-23T08:20:37.854Z,62.99
2022-10-23T08:23:04.226Z,63.05
2022-10-23T08:28:16.922Z,63.38
2022-10-23T08:30:43.297Z,63.21
2022-10-23T08:33:09.677Z,63.29
2022-10-23T08:35:36.032Z,63.35
2022-10-23T08:38:02.407Z,63.40
2022-10-23T08:40:28.770Z,63.44
2022-10-23T08:42:55.208Z,63.44
2022-10-23T08:45:21.608Z,63.45
2022-10-23T08:47:47.968Z,63.15
2022-10-23T08:50:14.423Z,63.08
2022-10-23T08:52:41.158Z,63.25
2022-10-23T08:55:07.726Z,63.25
2022-10-23T08:57:34.093Z,63.28
2022-10-23T09:00:00.459Z,63.08
2022-10-23T09:02:26.936Z,63.06
2022-10-23T09:04:53.362Z,63.17
2022-10-23T09:07:19.745Z,63.20
2022-10-23T09:09:46.124Z,63.04
2022-10-23T09:12:12.481Z,63.27
2022-10-23T09:14:38.854Z,63.12
2022-10-23T09:17:05.285Z,63.18
2022-10-23T09:19:31.674Z,63.12
2022-10-23T09:21:58.044Z,63.11
2022-10-23T09:24:24.429Z,63.07
2022-10-23T09:26:50.831Z,62.98
2022-10-23T09:29:17.234Z,62.69
2022-10-23T09:31:43.610Z,62.71
2022-10-23T09:34:11.785Z,62.72
2022-10-23T09:36:38.247Z,62.83
2022-10-23T09:39:04.622Z,62.73
2022-10-23T09:41:31.002Z,62.76
2022-10-23T09:43:57.364Z,62.93
2022-10-23T09:46:23.749Z,62.79
2022-10-23T09:48:50.104Z,62.43
2022-10-23T09:51:16.457Z,62.54
2022-10-23T09:53:42.825Z,62.84
2022-10-23T09:56:09.190Z,62.73
2022-10-23T09:58:35.611Z,62.79
2022-10-23T10:01:02.152Z,62.68
2022-10-23T10:03:28.614Z,62.07
2022-10-23T10:05:54.991Z,61.91
2022-10-23T10:08:21.361Z,62.23
2022-10-23T10:10:47.718Z,62.35
2022-10-23T10:13:15.058Z,62.43
2022-10-23T10:15:41.507Z,62.63
2022-10-23T10:18:07.870Z,62.53
2022-10-23T10:20:34.252Z,62.91
2022-10-23T10:23:00.616Z,62.64
2022-10-23T10:25:27.006Z,62.87
2022-10-23T10:27:53.374Z,62.69
2022-10-23T10:30:19.761Z,62.95
2022-10-23T10:32:46.136Z,62.87
2022-10-23T10:35:12.512Z,62.87
2022-10-23T10:37:38.868Z,62.93
2022-10-23T10:40:05.352Z,62.81
2022-10-23T10:42:31.721Z,62.99
2022-10-23T10:44:58.076Z,63.10
2022-10-23T10:47:24.442Z,63.22
2022-10-23T10:49:50.826Z,63.05
2022-10-23T10:52:17.205Z,63.01
2022-10-23T10:54:43.581Z,63.06
2022-10-23T10:57:09.945Z,63.21
2022-10-23T10:59:36.308Z,63.16
2022-10-23T11:02:02.776Z,63.17
2022-10-23T11:04:29.219Z,63.33
2022-10-23T11:06:55.582Z,63.22
2022-10-23T11:09:21.957Z,63.20
2022-10-23T11:11:48.322Z,63.11
2022-10-23T11:14:14.681Z,63.29
2022-10-23T11:16:41.053Z,63.50
2022-10-23T11:19:11.365Z,63.43
2022-10-23T11:21:40.296Z,63.29
2022-10-23T11:24:06.716Z,63.21
2022-10-23T11:26:33.119Z,63.03
2022-10-23T11:28:59.498Z,62.71
2022-10-23T11:31:25.853Z,62.46
2022-10-23T11:33:52.208Z,62.92
2022-10-23T11:36:18.591Z,62.57
2022-10-23T11:38:44.953Z,62.35
2022-10-23T11:41:11.343Z,62.42
2022-10-23T11:43:37.709Z,62.29
2022-10-23T11:46:04.074Z,62.50
2022-10-23T11:48:30.444Z,62.34
2022-10-23T11:50:59.083Z,62.47
2022-10-23T11:53:27.850Z,62.37
2022-10-23T11:55:54.218Z,62.31
2022-10-23T11:58:20.588Z,62.51
2022-10-23T12:00:46.959Z,62.37
2022-10-23T12:03:13.370Z,62.39
2022-10-23T12:05:39.733Z,62.48
2022-10-23T12:08:06.100Z,62.43
2022-10-23T12:10:32.478Z,62.27
2022-10-23T12:12:58.842Z,62.23
2022-10-23T12:15:25.218Z,62.29
2022-10-23T12:17:51.583Z,62.47
2022-10-23T12:20:17.961Z,62.37
2022-10-23T12:22:44.325Z,62.34
2022-10-23T12:25:10.676Z,62.03
2022-10-23T12:27:37.040Z,62.01
2022-10-23T12:30:03.394Z,61.95
2022-10-23T12:32:29.761Z,61.71
2022-10-23T12:34:56.121Z,61.73
2022-10-23T12:37:22.498Z,61.76
2022-10-23T12:39:48.864Z,61.65
2022-10-23T12:42:15.221Z,61.73
2022-10-23T12:44:41.601Z,61.65
2022-10-23T12:47:07.956Z,61.67
2022-10-23T12:49:34.341Z,61.63
2022-10-23T12:52:00.705Z,61.73
2022-10-23T12:54:27.084Z,61.68
2022-10-23T12:56:53.468Z,61.76
2022-10-23T12:59:19.845Z,61.59
2022-10-23T13:01:50.424Z,61.65
2022-10-23T13:07:05.181Z,61.62
2022-10-23T13:09:31.549Z,61.74
2022-10-23T13:11:57.924Z,61.87
2022-10-23T13:14:24.302Z,61.62
2022-10-23T13:16:50.665Z,61.52
2022-10-23T13:19:17.041Z,61.60
2022-10-23T13:21:43.408Z,61.59
2022-10-23T13:24:09.790Z,61.75
2022-10-23T13:26:36.149Z,61.84
2022-10-23T13:29:07.316Z,61.74
2022-10-23T13:31:35.845Z,61.56
2022-10-23T13:34:02.208Z,61.82
2022-10-23T13:36:28.582Z,61.75
2022-10-23T13:38:54.946Z,61.70
2022-10-23T13:41:21.326Z,61.46
2022-10-23T13:43:47.693Z,61.73
2022-10-23T13:46:14.054Z,61.72
2022-10-23T13:48:40.434Z,61.91
2022-10-23T13:51:06.795Z,61.69
2022-10-23T13:53:33.162Z,61.71
2022-10-23T13:55:59.525Z,61.69
2022-10-23T13:58:25.914Z,61.63
2022-10-23T14:00:52.276Z,60.64
2022-10-23T14:03:18.669Z,59.87
2022-10-23T14:05:45.052Z,60.34
2022-10-23T14:08:11.441Z,60.64
2022-10-23T14:10:37.814Z,60.94
2022-10-23T14:13:04.200Z,60.87
2022-10-23T14:15:30.573Z,61.05
2022-10-23T14:17:59.470Z,61.17
2022-10-23T14:20:27.938Z,61.18
2022-10-23T14:22:54.391Z,61.37
2022-10-23T14:25:20.754Z,61.44
2022-10-23T14:27:47.169Z,61.28
2022-10-23T14:30:13.571Z,61.35
2022-10-23T14:32:39.934Z,61.39
2022-10-23T14:35:06.310Z,61.21
2022-10-23T14:37:32.679Z,61.43
2022-10-23T14:39:59.036Z,61.44
2022-10-23T14:42:25.407Z,61.34
2022-10-23T14:44:51.776Z,61.18
2022-10-23T14:47:18.143Z,61.28
2022-10-23T14:49:44.511Z,61.26
2022-10-23T14:52:10.886Z,61.23
2022-10-23T14:54:37.253Z,61.21
2022-10-23T14:57:03.624Z,61.20
2022-10-23T14:59:29.986Z,61.14
2022-10-23T15:01:56.363Z,61.20
2022-10-23T15:04:22.730Z,61.08
2022-10-23T15:06:49.097Z,61.31
2022-10-23T15:09:15.849Z,60.90
2022-10-23T15:11:42.268Z,60.95
2022-10-23T15:14:08.642Z,61.04
2022-10-23T15:16:35.046Z,61.21
2022-10-23T15:19:01.425Z,60.93
2022-10-23T15:21:27.804Z,60.86
2022-10-23T15:23:54.168Z,60.89
2022-10-23T15:26:20.537Z,60.98
2022-10-23T15:28:46.900Z,60.92
2022-10-23T15:31:13.274Z,60.70
2022-10-23T15:33:39.654Z,61.01
2022-10-23T15:36:06.020Z,60.78
2022-10-23T15:38:32.384Z,60.40
2022-10-23T15:40:58.744Z,60.53
2022-10-23T15:43:25.113Z,60.45
2022-10-23T15:45:51.476Z,60.19
2022-10-23T15:48:17.833Z,60.13
2022-10-23T15:50:44.188Z,60.29
2022-10-23T15:53:10.552Z,60.49
2022-10-23T15:55:36.913Z,60.44
2022-10-23T15:58:03.290Z,60.75
2022-10-23T16:00:29.702Z,61.14
2022-10-23T16:02:56.168Z,61.31
2022-10-23T16:05:22.558Z,61.16
2022-10-23T16:07:48.912Z,61.38
2022-10-23T16:10:15.596Z,61.20
2022-10-23T16:12:42.363Z,61.50
2022-10-23T16:15:09.010Z,61.54
2022-10-23T16:17:35.391Z,61.44
2022-10-23T16:20:01.770Z,61.42
2022-10-23T16:22:28.137Z,61.36
2022-10-23T16:24:54.504Z,61.53
2022-10-23T16:27:20.868Z,61.56
2022-10-23T16:29:47.251Z,61.71
2022-10-23T16:32:13.616Z,61.63
2022-10-23T16:34:39.981Z,61.69
2022-10-23T16:37:06.335Z,61.58
2022-10-23T16:39:32.704Z,61.81
2022-10-23T16:41:59.069Z,61.79
2022-10-23T16:44:25.444Z,61.88
2022-10-23T16:46:51.831Z,61.70
2022-10-23T16:49:18.184Z,61.63
2022-10-23T16:51:44.550Z,61.64
2022-10-23T16:54:10.930Z,61.74
2022-10-23T16:56:37.292Z,61.62
2022-10-23T16:59:03.680Z,61.79
2022-10-23T17:01:30.142Z,61.63
2022-10-23T17:03:56.598Z,61.83
2022-10-23T17:06:22.972Z,62.27
2022-10-23T17:08:49.334Z,62.29
2022-10-23T17:11:15.692Z,62.42
2022-10-23T17:13:42.067Z,62.75
2022-10-23T17:16:08.484Z,62.64
2022-10-23T17:18:37.596Z,62.35
2022-10-23T17:21:05.072Z,62.65
2022-10-23T17:23:31.450Z,62.54
2022-10-23T17:25:57.822Z,62.57
2022-10-23T17:28:24.186Z,62.38
2022-10-23T17:30:50.557Z,62.33
2022-10-23T17:33:16.909Z,62.20
2022-10-23T17:35:43.268Z,62.45
2022-10-23T17:38:09.642Z,62.31
2022-10-23T17:40:36.053Z,62.47
2022-10-23T17:43:02.462Z,62.26
2022-10-23T17:45:28.834Z,62.36
2022-10-23T17:47:55.199Z,62.29
2022-10-23T17:50:21.575Z,62.30
2022-10-23T17:52:47.939Z,62.50
2022-10-23T17:55:14.399Z,62.37
2022-10-23T17:57:40.981Z,62.20
2022-10-23T18:00:07.500Z,62.21
2022-10-23T18:02:33.900Z,62.37
2022-10-23T18:05:00.322Z,62.35
2022-10-23T18:07:26.688Z,62.29
2022-10-23T18:09:53.139Z,62.12
2022-10-23T18:12:19.578Z,62.20
2022-10-23T18:14:45.945Z,62.10
2022-10-23T18:17:12.326Z,62.00
2022-10-23T18:19:38.675Z,61.93
2022-10-23T18:22:05.082Z,62.13
2022-10-23T18:24:31.477Z,62.15
2022-10-23T18:26:57.844Z,62.14
2022-10-23T18:29:24.210Z,62.00
2022-10-23T18:31:50.574Z,62.04
2022-10-23T18:34:16.966Z,61.95
2022-10-23T18:36:43.337Z,61.71
2022-10-23T18:39:09.705Z,61.43
2022-10-23T18:41:36.078Z,61.62
2022-10-23T18:44:02.441Z,61.79
2022-10-23T18:46:28.816Z,61.59
2022-10-23T18:48:55.225Z,61.60
2022-10-23T18:51:21.591Z,61.54
2022-10-23T18:53:47.969Z,61.51
2022-10-23T18:56:14.325Z,61.64
2022-10-23T18:58:40.693Z,61.85
2022-10-23T19:01:07.131Z,61.69
2022-10-23T19:03:33.573Z,61.98
2022-10-23T19:05:59.932Z,62.12
2022-10-23T19:08:26.306Z,62.14
2022-10-23T19:10:52.680Z,62.46
2022-10-23T19:13:19.049Z,62.30
2022-10-23T19:15:45.429Z,62.17
2022-10-23T19:18:11.789Z,61.97
2022-10-23T19:20:38.171Z,62.36
2022-10-23T19:23:04.529Z,62.36
2022-10-23T19:25:30.991Z,62.42
2022-10-23T19:27:57.349Z,62.53
2022-10-23T19:30:23.711Z,62.50
2022-10-23T19:32:50.087Z,62.68
2022-10-23T19:35:16.449Z,62.53
2022-10-23T19:37:42.940Z,62.63
2022-10-23T19:40:09.525Z,62.54
2022-10-23T19:42:35.910Z,62.71
2022-10-23T19:45:02.270Z,62.45
2022-10-23T19:47:28.628Z,62.65
2022-10-23T19:49:54.997Z,62.60
2022-10-23T19:52:21.372Z,62.64
2022-10-23T19:54:47.813Z,62.70
2022-10-23T19:57:14.597Z,62.67
2022-10-23T19:59:41.849Z,62.84
2022-10-23T20:02:08.405Z,62.89
2022-10-23T20:04:34.913Z,62.68
2022-10-23T20:07:01.277Z,62.75
2022-10-23T20:09:27.649Z,62.67
2022-10-23T20:11:54.015Z,62.87
2022-10-23T20:14:20.373Z,62.82
2022-10-23T20:16:46.746Z,62.79
2022-10-23T20:19:13.192Z,62.64
2022-10-23T20:21:39.651Z,62.55
2022-10-23T20:24:06.029Z,62.42
2022-10-23T20:26:32.398Z,62.18
2022-10-23T20:28:58.756Z,62.44
2022-10-23T20:31:25.134Z,62.16
2022-10-23T20:33:51.512Z,62.06
2022-10-23T20:36:17.872Z,62.35
2022-10-23T20:38:44.242Z,62.39
2022-10-23T20:41:10.604Z,62.18
2022-10-23T20:43:37.575Z,62.30
2022-10-23T20:46:03.950Z,62.23
2022-10-23T20:48:30.367Z,62.43
2022-10-23T20:50:56.742Z,62.59
2022-10-23T20:53:23.121Z,62.20
2022-10-23T20:55:49.480Z,62.11
2022-10-23T20:58:15.858Z,62.07
2022-10-23T21:00:44.972Z,61.94
2022-10-23T21:03:11.385Z,61.76
2022-10-23T21:05:37.760Z,61.56
2022-10-23T21:08:04.121Z,61.59
2022-10-23T21:10:30.487Z,61.37
2022-10-23T21:12:56.863Z,61.24
2022-10-23T21:15:23.215Z,61.09
2022-10-23T21:17:49.621Z,61.23
2022-10-23T21:20:15.980Z,61.19
2022-10-23T21:22:42.687Z,61.07
2022-10-23T21:25:09.265Z,61.10
2022-10-23T21:27:35.634Z,61.23
2022-10-23T21:30:02.018Z,61.45
2022-10-23T21:32:28.378Z,61.19
2022-10-23T21:34:54.742Z,61.04
2022-10-23T21:37:21.155Z,61.01
2022-10-23T21:39:47.516Z,60.89
2022-10-23T21:42:13.894Z,60.80
2022-10-23T21:44:40.312Z,60.98
2022-10-23T21:47:06.691Z,60.82
2022-10-23T21:49:33.060Z,60.86
2022-10-23T21:51:59.435Z,60.69
2022-10-23T21:54:25.793Z,60.65
2022-10-23T21:56:52.149Z,61.04
2022-10-23T21:59:18.514Z,60.84
2022-10-23T22:01:45.057Z,60.84
2022-10-23T22:04:11.533Z,60.97
2022-10-23T22:06:37.903Z,61.13
2022-10-23T22:09:04.265Z,61.30
2022-10-23T22:11:30.640Z,61.46
2022-10-23T22:13:57.010Z,61.48
2022-10-23T22:16:23.373Z,61.41
2022-10-23T22:18:49.746Z,61.38
2022-10-23T22:21:16.105Z,61.32
2022-10-23T22:23:42.465Z,61.25
2022-10-23T22:26:08.833Z,61.33
2022-10-23T22:28:35.207Z,61.17
2022-10-23T22:31:01.574Z,60.98
2022-10-23T22:33:27.946Z,61.18
2022-10-23T22:35:54.319Z,61.06
2022-10-23T22:38:20.685Z,61.10
2022-10-23T22:40:47.071Z,61.22
2022-10-23T22:43:13.429Z,61.18
2022-10-23T22:45:39.801Z,61.20
2022-10-23T22:48:06.167Z,61.26
2022-10-23T22:50:32.525Z,61.24
2022-10-23T22:52:58.901Z,61.45
2022-10-23T22:55:25.268Z,61.50
2022-10-23T22:57:51.632Z,61.34
2022-10-23T23:00:17.999Z,61.48
2022-10-23T23:02:44.374Z,61.29
2022-10-23T23:05:10.748Z,61.40
2022-10-23T23:07:37.112Z,61.44
2022-10-23T23:10:03.760Z,61.11
2022-10-23T23:12:30.127Z,61.41
2022-10-23T23:14:56.480Z,61.29
2022-10-23T23:17:22.857Z,61.15
2022-10-23T23:19:49.212Z,61.34
2022-10-23T23:22:15.611Z,61.31
2022-10-23T23:24:42.005Z,61.30
2022-10-23T23:27:08.360Z,61.54
2022-10-23T23:29:34.734Z,61.67
2022-10-23T23:32:01.094Z,61.59
2022-10-23T23:34:27.468Z,61.28
2022-10-23T23:36:53.851Z,61.51
2022-10-23T23:39:20.253Z,61.43
2022-10-23T23:41:46.655Z,61.55
2022-10-23T23:44:13.034Z,61.55
2022-10-23T23:46:39.387Z,61.53
2022-10-23T23:49:05.793Z,61.68
2022-10-23T23:51:32.165Z,61.56
2022-10-23T23:53:58.534Z,61.49
2022-10-23T23:56:24.908Z,61.57
2022-10-23T23:58:51.271Z,61.39
